sensor_id;sensor_type;location;lat;lon;timestamp;pressure;altitude;pressure_sealevel;temperature;humidity
61357;BME280;47227;46.752;23.576;2022-10-16T00:00:40;97022.98;;;7.34;83.65
61357;BME280;47227;46.752;23.576;2022-10-16T00:03:27;97020.02;;;7.35;83.57
61357;BME280;47227;46.752;23.576;2022-10-16T00:05:59;97020.88;;;7.36;83.49
61357;BME280;47227;46.752;23.576;2022-10-16T00:08:26;97022.09;;;7.37;83.39
61357;BME280;47227;46.752;23.576;2022-10-16T00:10:59;97020.71;;;7.34;83.30
61357;BME280;47227;46.752;23.576;2022-10-16T00:13:25;97023.45;;;7.31;83.27
61357;BME280;47227;46.752;23.576;2022-10-16T00:15:56;97026.06;;;7.29;83.42
61357;BME280;47227;46.752;23.576;2022-10-16T00:18:24;97023.59;;;7.27;83.44
61357;BME280;47227;46.752;23.576;2022-10-16T00:20:50;97027.98;;;7.23;83.17
61357;BME280;47227;46.752;23.576;2022-10-16T00:23:18;97026.04;;;7.17;83.14
61357;BME280;47227;46.752;23.576;2022-10-16T00:25:45;97026.46;;;7.11;83.23
61357;BME280;47227;46.752;23.576;2022-10-16T00:28:11;97025.44;;;7.06;83.13
61357;BME280;47227;46.752;23.576;2022-10-16T00:30:38;97024.73;;;6.99;83.02
61357;BME280;47227;46.752;23.576;2022-10-16T00:33:04;97030.33;;;6.94;83.14
61357;BME280;47227;46.752;23.576;2022-10-16T00:35:31;97035.00;;;6.89;83.06
61357;BME280;47227;46.752;23.576;2022-10-16T00:37:57;97037.05;;;6.84;83.24
61357;BME280;47227;46.752;23.576;2022-10-16T00:40:23;97038.71;;;6.78;83.47
61357;BME280;47227;46.752;23.576;2022-10-16T00:42:50;97036.47;;;6.72;83.48
61357;BME280;47227;46.752;23.576;2022-10-16T00:45:16;97040.50;;;6.67;84.45
61357;BME280;47227;46.752;23.576;2022-10-16T00:47:45;97041.98;;;6.60;83.71
61357;BME280;47227;46.752;23.576;2022-10-16T00:50:28;97040.20;;;6.49;83.46
61357;BME280;47227;46.752;23.576;2022-10-16T00:52:57;97037.55;;;6.43;83.45
61357;BME280;47227;46.752;23.576;2022-10-16T00:55:25;97037.91;;;6.42;83.87
61357;BME280;47227;46.752;23.576;2022-10-16T00:57:52;97038.66;;;6.44;84.03
61357;BME280;47227;46.752;23.576;2022-10-16T01:00:22;97039.54;;;6.46;84.10
61357;BME280;47227;46.752;23.576;2022-10-16T01:02:54;97044.52;;;6.51;84.01
61357;BME280;47227;46.752;23.576;2022-10-16T01:05:23;97044.00;;;6.55;84.33
61357;BME280;47227;46.752;23.576;2022-10-16T01:08:04;97044.39;;;6.60;84.49
61357;BME280;47227;46.752;23.576;2022-10-16T01:10:38;97042.67;;;6.65;84.46
61357;BME280;47227;46.752;23.576;2022-10-16T01:13:12;97041.34;;;6.70;84.76
61357;BME280;47227;46.752;23.576;2022-10-16T01:15:54;97036.42;;;6.75;84.81
61357;BME280;47227;46.752;23.576;2022-10-16T01:18:43;97039.05;;;6.81;84.64
61357;BME280;47227;46.752;23.576;2022-10-16T01:21:16;97036.68;;;6.85;84.74
61357;BME280;47227;46.752;23.576;2022-10-16T01:24:01;97033.58;;;6.91;85.16
61357;BME280;47227;46.752;23.576;2022-10-16T01:29:35;97034.95;;;6.97;84.85
61357;BME280;47227;46.752;23.576;2022-10-16T01:32:15;97031.80;;;6.97;84.92
61357;BME280;47227;46.752;23.576;2022-10-16T01:34:48;97038.34;;;6.93;84.53
61357;BME280;47227;46.752;23.576;2022-10-16T01:37:25;97042.70;;;6.87;84.41
61357;BME280;47227;46.752;23.576;2022-10-16T01:39:55;97043.52;;;6.81;84.51
61357;BME280;47227;46.752;23.576;2022-10-16T01:42:30;97043.85;;;6.76;84.54
61357;BME280;47227;46.752;23.576;2022-10-16T01:44:59;97043.17;;;6.67;85.31
61357;BME280;47227;46.752;23.576;2022-10-16T01:47:27;97045.72;;;6.60;84.89
61357;BME280;47227;46.752;23.576;2022-10-16T01:49:57;97046.65;;;6.53;84.61
61357;BME280;47227;46.752;23.576;2022-10-16T01:52:26;97052.66;;;6.48;84.75
61357;BME280;47227;46.752;23.576;2022-10-16T01:54:56;97054.98;;;6.45;84.64
61357;BME280;47227;46.752;23.576;2022-10-16T01:57:24;97056.64;;;6.41;85.01
61357;BME280;47227;46.752;23.576;2022-10-16T01:59:55;97056.83;;;6.32;84.33
61357;BME280;47227;46.752;23.576;2022-10-16T02:02:22;97056.27;;;6.23;84.09
61357;BME280;47227;46.752;23.576;2022-10-16T02:05:05;97059.19;;;6.17;84.16
61357;BME280;47227;46.752;23.576;2022-10-16T02:07:35;97059.52;;;6.12;84.09
61357;BME280;47227;46.752;23.576;2022-10-16T02:10:02;97063.19;;;6.08;84.26
61357;BME280;47227;46.752;23.576;2022-10-16T02:12:31;97063.67;;;6.08;84.98
61357;BME280;47227;46.752;23.576;2022-10-16T02:14:59;97071.61;;;6.11;84.89
61357;BME280;47227;46.752;23.576;2022-10-16T02:17:26;97071.58;;;6.14;84.97
61357;BME280;47227;46.752;23.576;2022-10-16T02:19:54;97069.25;;;6.17;84.87
61357;BME280;47227;46.752;23.576;2022-10-16T02:22:27;97068.73;;;6.21;85.00
61357;BME280;47227;46.752;23.576;2022-10-16T02:25:06;97071.55;;;6.26;85.14
61357;BME280;47227;46.752;23.576;2022-10-16T02:27:47;97071.26;;;6.32;86.40
61357;BME280;47227;46.752;23.576;2022-10-16T02:30:25;97074.23;;;6.38;85.85
61357;BME280;47227;46.752;23.576;2022-10-16T02:32:54;97075.67;;;6.44;85.84
61357;BME280;47227;46.752;23.576;2022-10-16T02:35:23;97080.20;;;6.46;85.45
61357;BME280;47227;46.752;23.576;2022-10-16T02:37:51;97081.61;;;6.47;85.42
61357;BME280;47227;46.752;23.576;2022-10-16T02:40:18;97084.21;;;6.49;85.46
61357;BME280;47227;46.752;23.576;2022-10-16T02:42:53;97082.93;;;6.51;85.74
61357;BME280;47227;46.752;23.576;2022-10-16T02:45:21;97078.28;;;6.53;85.70
61357;BME280;47227;46.752;23.576;2022-10-16T02:47:48;97081.09;;;6.52;85.52
61357;BME280;47227;46.752;23.576;2022-10-16T02:50:14;97083.70;;;6.49;85.57
61357;BME280;47227;46.752;23.576;2022-10-16T02:52:41;97085.30;;;6.46;85.66
61357;BME280;47227;46.752;23.576;2022-10-16T02:55:08;97085.41;;;6.38;85.34
61357;BME280;47227;46.752;23.576;2022-10-16T02:57:34;97088.29;;;6.28;85.08
61357;BME280;47227;46.752;23.576;2022-10-16T03:00:05;97088.85;;;6.17;84.81
61357;BME280;47227;46.752;23.576;2022-10-16T03:02:31;97089.44;;;6.05;84.68
61357;BME280;47227;46.752;23.576;2022-10-16T03:04:58;97088.14;;;5.91;84.24
61357;BME280;47227;46.752;23.576;2022-10-16T03:07:24;97092.73;;;5.81;84.35
61357;BME280;47227;46.752;23.576;2022-10-16T03:09:50;97094.63;;;5.72;84.16
61357;BME280;47227;46.752;23.576;2022-10-16T03:12:17;97093.67;;;5.63;84.29
61357;BME280;47227;46.752;23.576;2022-10-16T03:14:43;97096.59;;;5.55;85.34
61357;BME280;47227;46.752;23.576;2022-10-16T03:17:09;97099.15;;;5.49;85.30
61357;BME280;47227;46.752;23.576;2022-10-16T03:19:36;97095.31;;;5.43;85.04
61357;BME280;47227;46.752;23.576;2022-10-16T03:22:02;97099.21;;;5.38;85.25
61357;BME280;47227;46.752;23.576;2022-10-16T03:24:28;97101.36;;;5.36;85.06
61357;BME280;47227;46.752;23.576;2022-10-16T03:26:54;97107.29;;;5.37;85.20
61357;BME280;47227;46.752;23.576;2022-10-16T03:29:21;97109.73;;;5.39;85.21
61357;BME280;47227;46.752;23.576;2022-10-16T03:31:47;97110.76;;;5.42;85.29
61357;BME280;47227;46.752;23.576;2022-10-16T03:34:15;97113.70;;;5.48;85.64
61357;BME280;47227;46.752;23.576;2022-10-16T03:36:41;97118.77;;;5.54;85.86
61357;BME280;47227;46.752;23.576;2022-10-16T03:39:08;97126.25;;;5.61;85.86
61357;BME280;47227;46.752;23.576;2022-10-16T03:41:34;97127.23;;;5.66;85.83
61357;BME280;47227;46.752;23.576;2022-10-16T03:44:00;97130.81;;;5.63;86.15
61357;BME280;47227;46.752;23.576;2022-10-16T03:46:27;97137.96;;;5.57;86.14
61357;BME280;47227;46.752;23.576;2022-10-16T03:48:54;97141.24;;;5.55;85.73
61357;BME280;47227;46.752;23.576;2022-10-16T03:51:20;97146.48;;;5.54;85.79
61357;BME280;47227;46.752;23.576;2022-10-16T03:53:46;97144.16;;;5.58;86.06
61357;BME280;47227;46.752;23.576;2022-10-16T03:56:13;97151.66;;;5.57;85.72
61357;BME280;47227;46.752;23.576;2022-10-16T03:58:39;97152.85;;;5.57;85.90
61357;BME280;47227;46.752;23.576;2022-10-16T04:01:06;97154.25;;;5.54;85.58
61357;BME280;47227;46.752;23.576;2022-10-16T04:03:32;97151.45;;;5.48;85.55
61357;BME280;47227;46.752;23.576;2022-10-16T04:05:59;97154.00;;;5.47;85.97
61357;BME280;47227;46.752;23.576;2022-10-16T04:08:25;97152.46;;;5.48;86.03
61357;BME280;47227;46.752;23.576;2022-10-16T04:10:51;97158.05;;;5.47;86.42
61357;BME280;47227;46.752;23.576;2022-10-16T04:13:17;97157.33;;;5.40;85.99
61357;BME280;47227;46.752;23.576;2022-10-16T04:15:45;97154.66;;;5.33;85.87
61357;BME280;47227;46.752;23.576;2022-10-16T04:18:11;97158.13;;;5.31;86.13
61357;BME280;47227;46.752;23.576;2022-10-16T04:20:38;97156.27;;;5.29;86.37
61357;BME280;47227;46.752;23.576;2022-10-16T04:23:04;97152.50;;;5.27;86.44
61357;BME280;47227;46.752;23.576;2022-10-16T04:25:30;97157.82;;;5.26;86.57
61357;BME280;47227;46.752;23.576;2022-10-16T04:27:57;97152.73;;;5.24;86.44
61357;BME280;47227;46.752;23.576;2022-10-16T04:30:24;97157.43;;;5.24;86.27
61357;BME280;47227;46.752;23.576;2022-10-16T04:32:50;97158.27;;;5.23;87.11
61357;BME280;47227;46.752;23.576;2022-10-16T04:35:19;97159.98;;;5.24;87.33
61357;BME280;47227;46.752;23.576;2022-10-16T04:37:45;97162.98;;;5.28;86.94
61357;BME280;47227;46.752;23.576;2022-10-16T04:40:12;97167.82;;;5.32;87.00
61357;BME280;47227;46.752;23.576;2022-10-16T04:42:39;97168.84;;;5.36;87.91
61357;BME280;47227;46.752;23.576;2022-10-16T04:45:06;97169.64;;;5.37;87.02
61357;BME280;47227;46.752;23.576;2022-10-16T04:47:36;97170.63;;;5.34;87.15
61357;BME280;47227;46.752;23.576;2022-10-16T04:50:03;97170.02;;;5.30;87.09
61357;BME280;47227;46.752;23.576;2022-10-16T04:52:29;97176.66;;;5.25;87.22
61357;BME280;47227;46.752;23.576;2022-10-16T04:54:58;97180.17;;;5.29;87.25
61357;BME280;47227;46.752;23.576;2022-10-16T04:57:29;97176.68;;;5.36;87.37
61357;BME280;47227;46.752;23.576;2022-10-16T04:59:56;97175.84;;;5.44;87.28
61357;BME280;47227;46.752;23.576;2022-10-16T05:02:23;97177.02;;;5.54;87.82
61357;BME280;47227;46.752;23.576;2022-10-16T05:04:49;97177.46;;;5.65;87.81
61357;BME280;47227;46.752;23.576;2022-10-16T05:07:16;97181.58;;;5.72;87.99
61357;BME280;47227;46.752;23.576;2022-10-16T05:09:42;97185.52;;;5.76;87.84
61357;BME280;47227;46.752;23.576;2022-10-16T05:12:08;97183.80;;;5.79;87.74
61357;BME280;47227;46.752;23.576;2022-10-16T05:14:35;97190.20;;;5.79;87.70
61357;BME280;47227;46.752;23.576;2022-10-16T05:17:01;97189.70;;;5.76;87.26
61357;BME280;47227;46.752;23.576;2022-10-16T05:19:27;97191.51;;;5.77;87.55
61357;BME280;47227;46.752;23.576;2022-10-16T05:21:55;97195.34;;;5.76;87.11
61357;BME280;47227;46.752;23.576;2022-10-16T05:24:21;97197.79;;;5.70;86.81
61357;BME280;47227;46.752;23.576;2022-10-16T05:26:47;97200.92;;;5.63;86.50
61357;BME280;47227;46.752;23.576;2022-10-16T05:29:13;97205.58;;;5.55;86.03
61357;BME280;47227;46.752;23.576;2022-10-16T05:31:40;97206.50;;;5.43;85.82
61357;BME280;47227;46.752;23.576;2022-10-16T05:34:06;97209.84;;;5.33;85.64
61357;BME280;47227;46.752;23.576;2022-10-16T05:36:32;97209.00;;;5.26;85.56
61357;BME280;47227;46.752;23.576;2022-10-16T05:38:59;97208.82;;;5.17;86.06
61357;BME280;47227;46.752;23.576;2022-10-16T05:41:25;97211.17;;;5.10;85.85
61357;BME280;47227;46.752;23.576;2022-10-16T05:43:52;97214.20;;;5.05;86.33
61357;BME280;47227;46.752;23.576;2022-10-16T05:46:19;97220.09;;;5.04;86.11
61357;BME280;47227;46.752;23.576;2022-10-16T05:48:46;97219.99;;;5.03;86.04
61357;BME280;47227;46.752;23.576;2022-10-16T05:51:13;97220.63;;;5.03;86.87
61357;BME280;47227;46.752;23.576;2022-10-16T05:53:40;97220.41;;;5.04;86.76
61357;BME280;47227;46.752;23.576;2022-10-16T05:56:09;97221.55;;;5.07;86.17
61357;BME280;47227;46.752;23.576;2022-10-16T05:58:37;97227.27;;;5.13;86.37
61357;BME280;47227;46.752;23.576;2022-10-16T06:01:10;97233.52;;;5.19;86.38
61357;BME280;47227;46.752;23.576;2022-10-16T06:03:39;97234.24;;;5.25;86.54
61357;BME280;47227;46.752;23.576;2022-10-16T06:06:11;97234.93;;;5.32;86.70
61357;BME280;47227;46.752;23.576;2022-10-16T06:08:39;97234.41;;;5.40;86.58
61357;BME280;47227;46.752;23.576;2022-10-16T06:11:08;97234.48;;;5.50;87.23
61357;BME280;47227;46.752;23.576;2022-10-16T06:13:35;97240.52;;;5.60;87.15
61357;BME280;47227;46.752;23.576;2022-10-16T06:16:02;97250.16;;;5.72;87.11
61357;BME280;47227;46.752;23.576;2022-10-16T06:18:29;97251.38;;;5.79;86.96
61357;BME280;47227;46.752;23.576;2022-10-16T06:20:56;97251.89;;;5.83;86.45
61357;BME280;47227;46.752;23.576;2022-10-16T06:23:23;97256.02;;;5.86;86.72
61357;BME280;47227;46.752;23.576;2022-10-16T06:25:49;97256.51;;;5.86;86.93
61357;BME280;47227;46.752;23.576;2022-10-16T06:28:16;97257.56;;;5.89;87.21
61357;BME280;47227;46.752;23.576;2022-10-16T06:30:42;97257.30;;;5.91;87.28
61357;BME280;47227;46.752;23.576;2022-10-16T06:33:10;97255.98;;;5.97;87.37
61357;BME280;47227;46.752;23.576;2022-10-16T06:35:37;97257.05;;;6.01;87.29
61357;BME280;47227;46.752;23.576;2022-10-16T06:38:04;97249.77;;;6.08;87.44
61357;BME280;47227;46.752;23.576;2022-10-16T06:40:31;97250.55;;;6.20;87.51
61357;BME280;47227;46.752;23.576;2022-10-16T06:42:57;97253.43;;;6.30;87.44
61357;BME280;47227;46.752;23.576;2022-10-16T06:45:24;97252.34;;;6.38;87.46
61357;BME280;47227;46.752;23.576;2022-10-16T06:47:50;97254.35;;;6.45;87.38
61357;BME280;47227;46.752;23.576;2022-10-16T06:50:16;97256.62;;;6.48;86.97
61357;BME280;47227;46.752;23.576;2022-10-16T06:52:43;97260.27;;;6.50;86.76
61357;BME280;47227;46.752;23.576;2022-10-16T06:55:09;97259.84;;;6.49;86.26
61357;BME280;47227;46.752;23.576;2022-10-16T06:57:35;97264.81;;;6.49;86.26
61357;BME280;47227;46.752;23.576;2022-10-16T07:00:02;97266.89;;;6.52;86.54
61357;BME280;47227;46.752;23.576;2022-10-16T07:02:29;97269.10;;;6.53;87.86
61357;BME280;47227;46.752;23.576;2022-10-16T07:04:56;97272.75;;;6.54;88.18
61357;BME280;47227;46.752;23.576;2022-10-16T07:07:23;97274.82;;;6.61;87.94
61357;BME280;47227;46.752;23.576;2022-10-16T07:09:52;97280.27;;;6.66;87.97
61357;BME280;47227;46.752;23.576;2022-10-16T07:12:18;97283.71;;;6.74;87.69
61357;BME280;47227;46.752;23.576;2022-10-16T07:14:45;97287.61;;;6.83;87.78
61357;BME280;47227;46.752;23.576;2022-10-16T07:17:11;97285.91;;;6.97;87.49
61357;BME280;47227;46.752;23.576;2022-10-16T07:19:38;97289.42;;;7.11;87.31
61357;BME280;47227;46.752;23.576;2022-10-16T07:22:04;97287.38;;;7.21;87.06
61357;BME280;47227;46.752;23.576;2022-10-16T07:24:31;97288.17;;;7.22;87.22
61357;BME280;47227;46.752;23.576;2022-10-16T07:26:57;97288.30;;;7.25;87.37
61357;BME280;47227;46.752;23.576;2022-10-16T07:29:23;97294.05;;;7.38;87.22
61357;BME280;47227;46.752;23.576;2022-10-16T07:31:50;97290.21;;;7.51;86.87
61357;BME280;47227;46.752;23.576;2022-10-16T07:34:18;97291.39;;;7.67;86.78
61357;BME280;47227;46.752;23.576;2022-10-16T07:36:53;97290.58;;;7.82;86.63
61357;BME280;47227;46.752;23.576;2022-10-16T07:39:20;97292.45;;;7.95;86.47
61357;BME280;47227;46.752;23.576;2022-10-16T07:41:47;97293.73;;;8.08;86.29
61357;BME280;47227;46.752;23.576;2022-10-16T07:44:15;97293.02;;;8.15;85.98
61357;BME280;47227;46.752;23.576;2022-10-16T07:46:41;97296.20;;;8.23;85.80
61357;BME280;47227;46.752;23.576;2022-10-16T07:49:08;97298.39;;;8.29;85.12
61357;BME280;47227;46.752;23.576;2022-10-16T07:51:34;97294.55;;;8.35;85.51
61357;BME280;47227;46.752;23.576;2022-10-16T07:54:01;97297.56;;;8.41;85.26
61357;BME280;47227;46.752;23.576;2022-10-16T07:56:30;97299.36;;;8.49;84.85
61357;BME280;47227;46.752;23.576;2022-10-16T07:58:57;97302.88;;;8.53;84.57
61357;BME280;47227;46.752;23.576;2022-10-16T08:01:23;97301.80;;;8.58;84.52
61357;BME280;47227;46.752;23.576;2022-10-16T08:03:50;97303.05;;;8.67;84.48
61357;BME280;47227;46.752;23.576;2022-10-16T08:06:19;97304.36;;;8.76;84.56
61357;BME280;47227;46.752;23.576;2022-10-16T08:08:52;97308.34;;;8.85;84.29
61357;BME280;47227;46.752;23.576;2022-10-16T08:11:19;97310.31;;;8.91;83.97
61357;BME280;47227;46.752;23.576;2022-10-16T08:13:45;97311.67;;;8.93;83.10
61357;BME280;47227;46.752;23.576;2022-10-16T08:16:11;97311.27;;;8.94;83.10
61357;BME280;47227;46.752;23.576;2022-10-16T08:18:41;97316.07;;;8.98;82.92
61357;BME280;47227;46.752;23.576;2022-10-16T08:21:08;97319.88;;;9.02;82.31
61357;BME280;47227;46.752;23.576;2022-10-16T08:23:42;97324.09;;;9.10;82.28
61357;BME280;47227;46.752;23.576;2022-10-16T08:26:10;97322.97;;;9.20;81.75
61357;BME280;47227;46.752;23.576;2022-10-16T08:28:37;97321.10;;;9.33;81.39
61357;BME280;47227;46.752;23.576;2022-10-16T08:31:08;97321.02;;;9.49;81.43
61357;BME280;47227;46.752;23.576;2022-10-16T08:33:35;97318.80;;;9.60;80.09
61357;BME280;47227;46.752;23.576;2022-10-16T08:36:03;97322.43;;;9.72;79.96
61357;BME280;47227;46.752;23.576;2022-10-16T08:38:29;97323.73;;;9.81;78.39
61357;BME280;47227;46.752;23.576;2022-10-16T08:41:04;97326.84;;;9.96;78.82
61357;BME280;47227;46.752;23.576;2022-10-16T08:43:53;97328.30;;;10.15;78.68
61357;BME280;47227;46.752;23.576;2022-10-16T08:49:16;97326.21;;;10.53;77.77
61357;BME280;47227;46.752;23.576;2022-10-16T08:51:43;97328.52;;;10.65;76.77
61357;BME280;47227;46.752;23.576;2022-10-16T08:54:28;97326.46;;;10.78;75.42
61357;BME280;47227;46.752;23.576;2022-10-16T08:56:57;97330.23;;;10.76;73.52
61357;BME280;47227;46.752;23.576;2022-10-16T08:59:26;97330.73;;;10.81;74.24
61357;BME280;47227;46.752;23.576;2022-10-16T09:01:53;97333.71;;;10.93;73.89
61357;BME280;47227;46.752;23.576;2022-10-16T09:04:44;97336.75;;;11.00;73.55
61357;BME280;47227;46.752;23.576;2022-10-16T09:07:29;97339.65;;;11.05;73.65
61357;BME280;47227;46.752;23.576;2022-10-16T09:13:03;97345.38;;;11.06;72.57
61357;BME280;47227;46.752;23.576;2022-10-16T09:15:43;97343.88;;;11.13;72.75
61357;BME280;47227;46.752;23.576;2022-10-16T09:18:23;97343.42;;;10.99;72.39
61357;BME280;47227;46.752;23.576;2022-10-16T09:21:13;97345.20;;;10.96;72.24
61357;BME280;47227;46.752;23.576;2022-10-16T09:23:40;97342.36;;;10.96;72.49
61357;BME280;47227;46.752;23.576;2022-10-16T09:26:11;97344.39;;;10.93;72.13
61357;BME280;47227;46.752;23.576;2022-10-16T09:28:39;97344.55;;;11.02;72.41
61357;BME280;47227;46.752;23.576;2022-10-16T09:31:13;97343.32;;;10.91;73.20
61357;BME280;47227;46.752;23.576;2022-10-16T09:33:41;97345.43;;;10.79;74.31
61357;BME280;47227;46.752;23.576;2022-10-16T09:36:09;97351.52;;;10.97;74.65
61357;BME280;47227;46.752;23.576;2022-10-16T09:38:37;97347.11;;;11.16;74.22
61357;BME280;47227;46.752;23.576;2022-10-16T09:41:23;97349.92;;;11.25;74.13
61357;BME280;47227;46.752;23.576;2022-10-16T09:43:55;97353.48;;;11.35;73.83
61357;BME280;47227;46.752;23.576;2022-10-16T09:46:29;97354.61;;;11.38;73.55
61357;BME280;47227;46.752;23.576;2022-10-16T09:49:01;97355.27;;;11.35;74.18
61357;BME280;47227;46.752;23.576;2022-10-16T09:51:30;97350.96;;;11.53;74.48
61357;BME280;47227;46.752;23.576;2022-10-16T09:54:00;97351.27;;;11.81;74.03
61357;BME280;47227;46.752;23.576;2022-10-16T09:56:31;97348.16;;;12.14;74.65
61357;BME280;47227;46.752;23.576;2022-10-16T09:59:01;97344.42;;;12.44;73.91
61357;BME280;47227;46.752;23.576;2022-10-16T10:01:35;97345.98;;;12.65;72.78
61357;BME280;47227;46.752;23.576;2022-10-16T10:04:04;97341.05;;;12.88;71.50
61357;BME280;47227;46.752;23.576;2022-10-16T10:06:34;97342.41;;;13.02;70.85
61357;BME280;47227;46.752;23.576;2022-10-16T10:09:24;97338.13;;;13.27;70.32
61357;BME280;47227;46.752;23.576;2022-10-16T10:11:58;97341.77;;;13.56;70.03
61357;BME280;47227;46.752;23.576;2022-10-16T10:14:31;97336.34;;;13.66;68.60
61357;BME280;47227;46.752;23.576;2022-10-16T10:17:12;97335.55;;;13.73;68.26
61357;BME280;47227;46.752;23.576;2022-10-16T10:19:47;97332.30;;;13.82;67.88
61357;BME280;47227;46.752;23.576;2022-10-16T10:22:23;97335.28;;;14.06;67.71
61357;BME280;47227;46.752;23.576;2022-10-16T10:25:07;97332.02;;;14.39;67.45
61357;BME280;47227;46.752;23.576;2022-10-16T10:27:49;97329.22;;;14.78;66.57
61357;BME280;47227;46.752;23.576;2022-10-16T10:30:29;97324.06;;;15.00;65.29
61357;BME280;47227;46.752;23.576;2022-10-16T10:33:14;97323.23;;;15.20;64.52
61357;BME280;47227;46.752;23.576;2022-10-16T10:35:57;97318.94;;;15.50;64.96
61357;BME280;47227;46.752;23.576;2022-10-16T10:38:39;97318.11;;;15.86;62.91
61357;BME280;47227;46.752;23.576;2022-10-16T10:41:36;97315.13;;;16.10;61.75
61357;BME280;47227;46.752;23.576;2022-10-16T10:44:25;97313.88;;;16.37;61.78
61357;BME280;47227;46.752;23.576;2022-10-16T10:46:57;97311.77;;;16.66;60.40
61357;BME280;47227;46.752;23.576;2022-10-16T10:49:54;97307.48;;;16.68;59.55
61357;BME280;47227;46.752;23.576;2022-10-16T10:52:41;97307.30;;;16.73;59.71
61357;BME280;47227;46.752;23.576;2022-10-16T10:58:35;97301.27;;;17.04;58.70
61357;BME280;47227;46.752;23.576;2022-10-16T11:01:10;97300.81;;;17.25;58.24
61357;BME280;47227;46.752;23.576;2022-10-16T11:03:57;97296.32;;;17.35;58.18
61357;BME280;47227;46.752;23.576;2022-10-16T11:06:32;97292.53;;;17.59;57.62
61357;BME280;47227;46.752;23.576;2022-10-16T11:09:03;97291.09;;;17.82;56.74
61357;BME280;47227;46.752;23.576;2022-10-16T11:11:36;97292.66;;;17.97;57.15
61357;BME280;47227;46.752;23.576;2022-10-16T11:14:15;97291.83;;;18.27;56.03
61357;BME280;47227;46.752;23.576;2022-10-16T11:16:54;97290.68;;;18.34;55.72
61357;BME280;47227;46.752;23.576;2022-10-16T11:19:35;97287.47;;;18.41;55.22
61357;BME280;47227;46.752;23.576;2022-10-16T11:22:12;97285.27;;;18.57;55.01
61357;BME280;47227;46.752;23.576;2022-10-16T11:24:46;97283.85;;;19.01;54.17
61357;BME280;47227;46.752;23.576;2022-10-16T11:27:20;97284.83;;;19.37;53.08
61357;BME280;47227;46.752;23.576;2022-10-16T11:29:56;97289.36;;;19.61;52.02
61357;BME280;47227;46.752;23.576;2022-10-16T11:32:29;97290.52;;;19.87;51.24
61357;BME280;47227;46.752;23.576;2022-10-16T11:35:11;97286.44;;;19.90;51.18
61357;BME280;47227;46.752;23.576;2022-10-16T11:37:44;97285.67;;;20.25;50.33
61357;BME280;47227;46.752;23.576;2022-10-16T11:40:31;97281.50;;;20.54;49.38
61357;BME280;47227;46.752;23.576;2022-10-16T11:43:23;97280.20;;;20.60;48.60
61357;BME280;47227;46.752;23.576;2022-10-16T11:45:54;97279.38;;;20.74;48.23
61357;BME280;47227;46.752;23.576;2022-10-16T11:48:43;97277.52;;;21.07;47.47
61357;BME280;47227;46.752;23.576;2022-10-16T11:51:29;97275.18;;;21.41;46.40
61357;BME280;47227;46.752;23.576;2022-10-16T11:54:20;97278.66;;;21.78;45.42
61357;BME280;47227;46.752;23.576;2022-10-16T11:56:51;97278.34;;;21.99;44.93
61357;BME280;47227;46.752;23.576;2022-10-16T11:59:28;97279.02;;;21.99;44.56
61357;BME280;47227;46.752;23.576;2022-10-16T12:02:28;97278.99;;;22.35;43.65
61357;BME280;47227;46.752;23.576;2022-10-16T12:05:14;97281.36;;;22.60;42.74
61357;BME280;47227;46.752;23.576;2022-10-16T12:07:50;97280.52;;;22.92;42.16
61357;BME280;47227;46.752;23.576;2022-10-16T12:10:23;97276.50;;;23.23;41.12
61357;BME280;47227;46.752;23.576;2022-10-16T12:12:54;97282.10;;;23.79;40.60
61357;BME280;47227;46.752;23.576;2022-10-16T12:15:29;97284.15;;;24.32;39.02
61357;BME280;47227;46.752;23.576;2022-10-16T12:18:23;97286.68;;;24.37;37.18
61357;BME280;47227;46.752;23.576;2022-10-16T12:20:58;97283.19;;;24.50;36.73
61357;BME280;47227;46.752;23.576;2022-10-16T12:23:30;97282.75;;;24.42;36.32
61357;BME280;47227;46.752;23.576;2022-10-16T12:25:59;97280.36;;;24.55;36.01
61357;BME280;47227;46.752;23.576;2022-10-16T12:28:28;97280.96;;;24.80;35.61
61357;BME280;47227;46.752;23.576;2022-10-16T12:30:58;97281.09;;;25.09;35.05
61357;BME280;47227;46.752;23.576;2022-10-16T12:33:34;97283.56;;;24.95;34.21
61357;BME280;47227;46.752;23.576;2022-10-16T12:36:07;97279.91;;;25.29;35.16
61357;BME280;47227;46.752;23.576;2022-10-16T12:38:46;97277.48;;;25.99;33.92
61357;BME280;47227;46.752;23.576;2022-10-16T12:41:27;97275.11;;;26.32;32.32
61357;BME280;47227;46.752;23.576;2022-10-16T12:43:55;97275.23;;;26.42;31.77
61357;BME280;47227;46.752;23.576;2022-10-16T12:49:34;97274.71;;;26.32;30.72
61357;BME280;47227;46.752;23.576;2022-10-16T12:52:02;97277.45;;;26.35;30.99
61357;BME280;47227;46.752;23.576;2022-10-16T12:54:34;97279.56;;;26.76;30.41
61357;BME280;47227;46.752;23.576;2022-10-16T13:00:18;97278.77;;;26.80;30.10
61357;BME280;47227;46.752;23.576;2022-10-16T13:03:04;97284.62;;;26.50;29.21
61357;BME280;47227;46.752;23.576;2022-10-16T13:05:59;97283.54;;;26.34;29.42
61357;BME280;47227;46.752;23.576;2022-10-16T13:08:50;97287.33;;;26.34;29.54
61357;BME280;47227;46.752;23.576;2022-10-16T13:11:45;97290.77;;;26.72;29.24
61357;BME280;47227;46.752;23.576;2022-10-16T13:14:33;97292.27;;;26.83;29.13
61357;BME280;47227;46.752;23.576;2022-10-16T13:17:29;97294.14;;;26.79;29.13
61357;BME280;47227;46.752;23.576;2022-10-16T13:20:10;97294.14;;;27.55;29.00
61357;BME280;47227;46.752;23.576;2022-10-16T13:22:51;97290.09;;;27.10;27.98
61357;BME280;47227;46.752;23.576;2022-10-16T13:25:34;97290.98;;;26.79;28.05
61357;BME280;47227;46.752;23.576;2022-10-16T13:28:06;97293.12;;;26.49;28.70
61357;BME280;47227;46.752;23.576;2022-10-16T13:30:40;97291.20;;;26.65;28.89
61357;BME280;47227;46.752;23.576;2022-10-16T13:33:15;97293.27;;;26.50;29.01
61357;BME280;47227;46.752;23.576;2022-10-16T13:35:52;97292.74;;;26.59;29.10
61357;BME280;47227;46.752;23.576;2022-10-16T13:38:23;97293.02;;;26.76;28.85